Time;durP1;ratioP1;P1;durP2;ratioP2;P2;SDS_P1;SDS_P2;PMS_P1;PMS_P2;Temp;Humidity;BMP_temperature;BMP_pressure;BME280_temperature;BME280_humidity;BME280_pressure;Samples;Min_cycle;Max_cycle;Signal;HPM_P1;HPM_P2
2022/03/08 00:02:19;;;;;;;17.90;13.18;;;-2.60;99.90;;;;;;5016943;28;20112;-93
2022/03/08 00:04:46;;;;;;;16.80;12.93;;;-2.60;99.90;;;;;;5020166;28;20050;-92
2022/03/08 00:07:13;;;;;;;20.33;13.85;;;-2.80;99.90;;;;;;5020148;28;20676;-93
2022/03/08 00:09:40;;;;;;;18.70;12.32;;;-3.00;99.90;;;;;;5020129;28;20508;-92
2022/03/08 00:12:07;;;;;;;19.05;14.45;;;-3.10;99.90;;;;;;5019561;28;20046;-93
2022/03/08 00:14:34;;;;;;;21.52;13.70;;;-3.30;99.90;;;;;;5020024;28;20486;-92
2022/03/08 00:17:02;;;;;;;19.55;13.98;;;-3.30;99.90;;;;;;5019905;28;20053;-93
2022/03/08 00:19:29;;;;;;;22.30;14.25;;;-3.50;99.90;;;;;;5019599;28;20053;-93
2022/03/08 00:21:56;;;;;;;23.63;14.00;;;-3.60;99.90;;;;;;5019957;28;20049;-92
2022/03/08 00:24:22;;;;;;;22.75;13.82;;;-3.60;99.90;;;;;;5019818;28;20140;-92
2022/03/08 00:26:49;;;;;;;18.98;13.63;;;-3.60;99.90;;;;;;5020035;28;20349;-91
2022/03/08 00:29:16;;;;;;;21.73;14.73;;;-3.70;99.90;;;;;;5019589;28;20053;-92
2022/03/08 00:31:43;;;;;;;20.38;14.38;;;-3.70;99.90;;;;;;5019539;28;20055;-92
2022/03/08 00:34:09;;;;;;;23.25;15.32;;;-3.80;99.90;;;;;;5018956;28;20049;-92
2022/03/08 00:36:36;;;;;;;22.40;14.88;;;-3.90;99.90;;;;;;5019917;28;20041;-92
2022/03/08 00:39:04;;;;;;;26.50;15.32;;;-4.00;99.90;;;;;;5019567;28;20175;-91
2022/03/08 00:41:30;;;;;;;23.83;15.13;;;-4.00;99.90;;;;;;5019296;28;20558;-91
2022/03/08 00:43:57;;;;;;;23.27;15.50;;;-4.00;99.90;;;;;;5019305;28;20068;-91
2022/03/08 00:46:24;;;;;;;22.00;15.00;;;-4.10;99.90;;;;;;5019452;28;20128;-91
2022/03/08 00:48:51;;;;;;;26.10;15.02;;;-4.10;99.90;;;;;;5019213;28;20054;-91
2022/03/08 00:51:17;;;;;;;23.15;14.90;;;-4.10;99.90;;;;;;5019225;28;20471;-90
2022/03/08 00:53:44;;;;;;;23.88;15.80;;;-4.20;99.90;;;;;;5018949;28;20490;-90
2022/03/08 00:56:11;;;;;;;22.73;14.88;;;-4.30;99.90;;;;;;5019530;28;20053;-90
2022/03/08 00:58:38;;;;;;;25.95;15.80;;;-4.40;99.90;;;;;;5019326;28;20067;-91
2022/03/08 01:01:04;;;;;;;24.85;16.10;;;-4.50;99.90;;;;;;5019084;28;20067;-90
2022/03/08 01:03:31;;;;;;;24.80;16.52;;;-4.50;99.90;;;;;;5019331;28;20057;-90
2022/03/08 01:05:58;;;;;;;28.27;16.48;;;-4.50;99.90;;;;;;5019446;28;20052;-90
2022/03/08 01:08:25;;;;;;;25.33;15.93;;;-4.50;99.90;;;;;;5019162;28;20060;-90
2022/03/08 01:10:52;;;;;;;26.08;16.75;;;-4.50;99.90;;;;;;5019042;28;20420;-90
2022/03/08 01:13:20;;;;;;;28.42;17.02;;;-4.60;99.90;;;;;;5018501;28;20049;-90
2022/03/08 01:15:47;;;;;;;25.58;17.15;;;-4.70;99.90;;;;;;5018901;28;20054;-90
2022/03/08 01:18:14;;;;;;;28.27;17.73;;;-4.60;99.90;;;;;;5019002;28;20177;-89
2022/03/08 01:20:41;;;;;;;30.50;17.65;;;-4.50;99.90;;;;;;5018660;28;20133;-89
2022/03/08 01:23:07;;;;;;;25.60;16.98;;;-4.40;99.90;;;;;;5018480;28;20451;-89
2022/03/08 01:25:36;;;;;;;27.55;16.85;;;-4.30;99.90;;;;;;5018498;28;20049;-89
2022/03/08 01:28:03;;;;;;;27.27;17.17;;;-4.30;99.90;;;;;;5018656;28;20569;-92
2022/03/08 01:30:31;;;;;;;27.23;16.73;;;-4.40;99.90;;;;;;5018334;28;20537;-89
2022/03/08 01:32:58;;;;;;;22.20;15.38;;;-4.50;99.90;;;;;;5018296;28;20071;-89
2022/03/08 01:35:25;;;;;;;24.55;15.82;;;-4.60;99.90;;;;;;5018477;28;20128;-91
2022/03/08 01:37:52;;;;;;;27.77;17.17;;;-4.70;99.90;;;;;;5018307;28;20049;-89
2022/03/08 01:40:19;;;;;;;26.70;17.88;;;-4.80;99.90;;;;;;5018147;28;20054;-89
2022/03/08 01:42:49;;;;;;;24.35;16.23;;;-4.90;99.90;;;;;;5017709;28;20053;-91
2022/03/08 01:45:18;;;;;;;26.15;17.08;;;-4.80;99.90;;;;;;5018096;28;20064;-91
2022/03/08 01:47:44;;;;;;;26.80;18.17;;;-4.80;99.90;;;;;;5018205;28;20055;-88
2022/03/08 01:50:12;;;;;;;26.70;18.15;;;-4.80;99.90;;;;;;5017936;28;20053;-88
2022/03/08 01:52:39;;;;;;;29.55;18.67;;;-4.90;99.90;;;;;;5017869;28;20132;-88
2022/03/08 01:55:07;;;;;;;31.13;18.33;;;-4.90;99.90;;;;;;5018097;28;20054;-89
2022/03/08 01:57:34;;;;;;;31.52;19.15;;;-4.90;99.90;;;;;;5017927;28;20049;-91
2022/03/08 02:00:04;;;;;;;33.42;19.73;;;-4.90;99.90;;;;;;5017873;28;20049;-89
2022/03/08 02:02:30;;;;;;;31.27;19.45;;;-4.90;99.90;;;;;;5018015;28;20072;-88
2022/03/08 02:04:57;;;;;;;29.35;19.23;;;-5.00;99.90;;;;;;5017952;28;20140;-88
2022/03/08 02:07:24;;;;;;;32.30;18.70;;;-5.00;99.90;;;;;;5017798;28;20049;-88
2022/03/08 02:09:51;;;;;;;33.70;20.52;;;-5.00;99.90;;;;;;5018037;28;20054;-88
2022/03/08 02:12:18;;;;;;;32.97;19.30;;;-5.10;99.90;;;;;;5021254;28;20557;-88
2022/03/08 02:14:44;;;;;;;32.33;19.88;;;-5.10;99.90;;;;;;5024197;28;20053;-90
2022/03/08 02:17:11;;;;;;;29.95;18.52;;;-5.00;99.90;;;;;;5017609;28;20063;-88
2022/03/08 02:19:38;;;;;;;32.30;20.13;;;-5.10;99.90;;;;;;5017613;28;20076;-88
2022/03/08 02:22:04;;;;;;;30.85;19.13;;;-5.10;99.90;;;;;;5017338;28;20099;-88
2022/03/08 02:24:31;;;;;;;33.03;18.70;;;-5.20;99.90;;;;;;5017177;28;20053;-90
2022/03/08 02:26:59;;;;;;;29.25;17.77;;;-5.20;99.90;;;;;;5017473;28;20500;-88
2022/03/08 02:29:27;;;;;;;28.23;17.42;;;-5.30;99.90;;;;;;5017511;28;20049;-88
2022/03/08 02:31:55;;;;;;;28.90;17.75;;;-5.30;99.90;;;;;;5017091;28;20125;-88
2022/03/08 02:34:22;;;;;;;30.83;17.95;;;-5.30;99.90;;;;;;5016778;28;20057;-90
2022/03/08 02:37:01;;;;;;;29.55;18.45;;;-5.40;99.90;;;;;;5017119;28;20496;-88
2022/03/08 02:39:28;;;;;;;28.63;18.27;;;-5.50;99.90;;;;;;5017129;28;20080;-87
2022/03/08 02:41:55;;;;;;;36.83;19.75;;;-5.50;99.90;;;;;;5017126;28;20486;-87
2022/03/08 02:44:22;;;;;;;30.90;18.52;;;-5.50;99.90;;;;;;5017401;28;20136;-90
2022/03/08 02:46:48;;;;;;;29.33;18.52;;;-5.40;99.90;;;;;;5017070;28;20056;-90
2022/03/08 02:49:15;;;;;;;30.25;17.80;;;-5.50;99.90;;;;;;5017146;28;20042;-88
2022/03/08 02:51:42;;;;;;;28.05;18.30;;;-5.40;99.90;;;;;;5016967;28;20064;-90
2022/03/08 02:54:09;;;;;;;30.83;18.85;;;-5.50;99.90;;;;;;5016968;28;20505;-90
2022/03/08 02:56:36;;;;;;;30.23;18.08;;;-5.50;99.90;;;;;;5016222;28;20489;-90
2022/03/08 02:59:03;;;;;;;32.45;18.65;;;-5.40;99.90;;;;;;5016800;28;20053;-90
2022/03/08 03:01:30;;;;;;;29.05;17.95;;;-5.30;99.90;;;;;;5016497;28;20050;-90
2022/03/08 03:03:57;;;;;;;27.00;17.67;;;-5.30;99.90;;;;;;5017067;28;20489;-88
2022/03/08 03:06:24;;;;;;;30.67;18.65;;;-5.30;99.90;;;;;;5016977;28;20055;-88
2022/03/08 03:08:51;;;;;;;36.40;19.20;;;-5.30;99.90;;;;;;5016784;28;20053;-90
2022/03/08 03:11:17;;;;;;;33.65;18.85;;;-5.20;99.90;;;;;;5016274;28;20069;-90
2022/03/08 03:13:44;;;;;;;29.13;18.25;;;-5.20;99.90;;;;;;5016292;28;20055;-90
2022/03/08 03:16:11;;;;;;;34.65;18.77;;;-5.20;99.90;;;;;;5016497;28;20052;-90
2022/03/08 03:18:38;;;;;;;30.35;17.95;;;-5.20;99.90;;;;;;5016225;28;20053;-90
2022/03/08 03:21:04;;;;;;;25.35;16.85;;;-5.40;99.90;;;;;;5016339;28;20056;-87
2022/03/08 03:23:31;;;;;;;33.13;18.88;;;-5.50;99.90;;;;;;5016583;28;20068;-87
2022/03/08 03:25:58;;;;;;;27.40;16.60;;;-5.60;99.90;;;;;;5016384;28;20417;-87
2022/03/08 03:28:25;;;;;;;27.58;17.27;;;-5.70;99.90;;;;;;5016404;28;20057;-90
2022/03/08 03:30:51;;;;;;;29.13;17.75;;;-5.80;99.90;;;;;;5016288;28;20057;-87
2022/03/08 03:33:18;;;;;;;29.88;18.75;;;-5.90;99.90;;;;;;5015536;28;20057;-87
2022/03/08 03:35:45;;;;;;;29.77;18.55;;;-5.90;99.90;;;;;;5016352;28;20060;-90
2022/03/08 03:38:12;;;;;;;26.15;17.33;;;-5.90;99.90;;;;;;5016216;28;20088;-90
2022/03/08 03:40:39;;;;;;;29.88;18.27;;;-6.00;99.90;;;;;;5016104;28;20056;-90
2022/03/08 03:43:05;;;;;;;31.10;19.40;;;-6.00;99.90;;;;;;5015860;28;20079;-90
2022/03/08 03:45:32;;;;;;;33.60;18.33;;;-5.90;99.90;;;;;;5016118;28;20057;-90
2022/03/08 03:47:59;;;;;;;27.23;18.13;;;-5.90;99.90;;;;;;5016145;28;20053;-90
2022/03/08 03:50:25;;;;;;;29.42;18.05;;;-5.80;99.90;;;;;;5016120;28;20057;-90
2022/03/08 03:52:52;;;;;;;30.45;18.73;;;-5.80;99.90;;;;;;5015763;28;20087;-90
2022/03/08 03:55:19;;;;;;;30.55;17.85;;;-5.80;99.90;;;;;;5015928;28;20133;-90
2022/03/08 03:57:46;;;;;;;30.50;17.63;;;-5.90;99.90;;;;;;5033149;28;20053;-90
2022/03/08 04:00:14;;;;;;;26.42;16.77;;;-5.90;99.90;;;;;;5033035;28;20136;-90
2022/03/08 04:02:42;;;;;;;27.63;16.20;;;-6.00;99.90;;;;;;5015696;28;20421;-90
2022/03/08 04:05:09;;;;;;;28.63;17.33;;;-6.00;99.90;;;;;;5033409;28;20045;-90
2022/03/08 04:07:37;;;;;;;23.02;15.48;;;-6.00;99.90;;;;;;5033369;28;20224;-87
2022/03/08 04:10:05;;;;;;;27.55;17.40;;;-6.10;99.90;;;;;;5015629;28;20050;-87
2022/03/08 04:12:32;;;;;;;28.67;17.85;;;-6.10;99.90;;;;;;5032992;28;20441;-90
2022/03/08 04:14:59;;;;;;;30.15;18.48;;;-6.20;99.90;;;;;;5032647;28;20510;-90
2022/03/08 04:17:26;;;;;;;34.88;17.83;;;-6.30;99.90;;;;;;5015824;28;20088;-90
2022/03/08 04:19:52;;;;;;;33.50;18.95;;;-6.20;99.90;;;;;;5015989;28;20088;-90
2022/03/08 04:22:20;;;;;;;31.52;18.48;;;-6.20;99.90;;;;;;5033816;28;20132;-89
2022/03/08 04:24:47;;;;;;;36.38;20.60;;;-6.20;99.90;;;;;;5015678;28;20053;-87
2022/03/08 04:27:13;;;;;;;49.25;25.25;;;-6.20;99.90;;;;;;5033112;28;20052;-87
2022/03/08 04:29:40;;;;;;;54.25;26.33;;;-6.20;99.90;;;;;;5015750;28;20495;-87
2022/03/08 04:32:07;;;;;;;44.40;24.48;;;-6.20;99.90;;;;;;5015942;28;20133;-89
2022/03/08 04:34:34;;;;;;;35.70;20.55;;;-6.20;99.90;;;;;;5032494;28;20049;-90
2022/03/08 04:37:01;;;;;;;35.85;20.02;;;-6.10;99.90;;;;;;5015898;28;20465;-90
2022/03/08 04:39:28;;;;;;;29.48;17.58;;;-6.00;99.90;;;;;;5015546;28;20053;-90
2022/03/08 04:41:54;;;;;;;35.08;18.85;;;-6.00;99.90;;;;;;5015112;28;20060;-89
2022/03/08 04:44:21;;;;;;;29.73;18.23;;;-6.00;99.90;;;;;;5033139;28;20490;-89
2022/03/08 04:46:50;;;;;;;28.70;18.17;;;-5.90;99.90;;;;;;5015867;28;20049;-90
2022/03/08 04:49:17;;;;;;;31.17;18.60;;;-5.90;99.90;;;;;;5035173;28;20045;-89
2022/03/08 04:51:43;;;;;;;29.77;17.40;;;-5.90;99.90;;;;;;5019065;28;20045;-89
2022/03/08 04:54:11;;;;;;;31.15;17.08;;;-5.90;99.90;;;;;;5019026;28;20413;-89
2022/03/08 04:56:37;;;;;;;26.35;15.80;;;-5.90;99.90;;;;;;5036350;28;20071;-90
2022/03/08 04:59:04;;;;;;;29.38;18.02;;;-6.10;99.90;;;;;;5019314;28;20080;-89
2022/03/08 05:01:31;;;;;;;29.38;16.42;;;-6.00;99.90;;;;;;5019044;28;20073;-90
2022/03/08 05:03:58;;;;;;;30.23;17.60;;;-5.90;99.90;;;;;;5018910;28;20045;-90
2022/03/08 05:06:29;;;;;;;25.63;16.80;;;-5.90;99.90;;;;;;5036380;28;20209;-90
2022/03/08 05:08:57;;;;;;;33.08;17.13;;;-6.00;99.90;;;;;;5036052;28;20049;-90
2022/03/08 05:11:24;;;;;;;27.65;16.98;;;-6.20;99.90;;;;;;5018702;28;20053;-90
2022/03/08 05:13:51;;;;;;;32.85;17.20;;;-6.20;99.90;;;;;;5018803;28;20053;-90
2022/03/08 05:16:18;;;;;;;32.00;18.10;;;-6.40;99.90;;;;;;5018644;28;20069;-90
2022/03/08 05:18:45;;;;;;;30.65;17.40;;;-6.40;99.90;;;;;;5018721;28;20104;-89
2022/03/08 05:21:11;;;;;;;32.70;18.00;;;-6.50;99.90;;;;;;5017234;28;20056;-89
2022/03/08 05:23:38;;;;;;;33.70;17.88;;;-6.50;99.90;;;;;;5018494;28;20139;-90
2022/03/08 05:26:05;;;;;;;31.98;17.88;;;-6.50;99.90;;;;;;5018417;28;20060;-90
2022/03/08 05:28:32;;;;;;;36.90;19.30;;;-6.50;99.90;;;;;;5018406;28;20054;-89
2022/03/08 05:30:59;;;;;;;30.13;16.98;;;-6.50;99.90;;;;;;5018307;28;20497;-89
2022/03/08 05:33:26;;;;;;;34.50;17.80;;;-6.50;99.90;;;;;;5018018;28;20409;-90
2022/03/08 05:35:52;;;;;;;28.10;17.00;;;-6.50;99.90;;;;;;5018354;28;20136;-90
2022/03/08 05:38:19;;;;;;;35.03;18.58;;;-6.50;99.90;;;;;;5018356;28;20133;-90
2022/03/08 05:40:46;;;;;;;37.85;18.52;;;-6.60;99.90;;;;;;5018066;28;20490;-90
2022/03/08 05:43:13;;;;;;;35.85;18.35;;;-6.50;99.90;;;;;;5017711;28;20049;-90
2022/03/08 05:45:40;;;;;;;42.13;18.33;;;-6.40;99.90;;;;;;5030033;28;20072;-90
2022/03/08 05:48:06;;;;;;;40.33;18.73;;;-6.40;99.90;;;;;;5037276;28;20052;-90
2022/03/08 05:50:33;;;;;;;35.17;18.83;;;-6.30;99.90;;;;;;5036362;28;20483;-89
2022/03/08 05:53:00;;;;;;;32.38;20.10;;;-6.20;99.90;;;;;;5037058;28;20045;-90
2022/03/08 05:55:26;;;;;;;29.42;17.50;;;-6.20;99.90;;;;;;5036873;28;20045;-90
2022/03/08 05:57:53;;;;;;;32.75;19.08;;;-6.10;99.90;;;;;;5037222;28;20053;-90
2022/03/08 06:00:20;;;;;;;30.73;17.92;;;-6.10;99.90;;;;;;5035612;28;20144;-89
2022/03/08 06:02:47;;;;;;;35.28;18.33;;;-6.10;99.90;;;;;;5037301;28;20051;-90
2022/03/08 06:05:14;;;;;;;32.47;18.80;;;-6.00;99.90;;;;;;5037823;28;20053;-90
2022/03/08 06:07:41;;;;;;;31.73;17.63;;;-6.00;99.90;;;;;;5037755;28;20154;-90
2022/03/08 06:10:09;;;;;;;33.78;19.15;;;-6.00;99.90;;;;;;5037664;28;20073;-87
2022/03/08 06:12:36;;;;;;;42.03;18.10;;;-5.90;99.90;;;;;;5037763;28;20041;-89
2022/03/08 06:15:04;;;;;;;34.13;18.83;;;-5.80;99.90;;;;;;5037076;28;20065;-90
2022/03/08 06:17:31;;;;;;;34.75;17.98;;;-5.90;99.90;;;;;;5037132;28;20556;-88
2022/03/08 06:19:58;;;;;;;38.97;19.20;;;-6.00;99.90;;;;;;5037593;28;20052;-90
2022/03/08 06:22:24;;;;;;;31.70;19.33;;;-6.00;99.90;;;;;;5037370;28;20127;-91
2022/03/08 06:24:51;;;;;;;40.20;19.63;;;-6.00;99.90;;;;;;5037345;28;20056;-90
2022/03/08 06:27:19;;;;;;;31.90;19.15;;;-6.00;99.90;;;;;;5037357;28;20045;-90
2022/03/08 06:29:47;;;;;;;36.80;19.70;;;-6.00;99.90;;;;;;5037011;28;20523;-90
2022/03/08 06:32:13;;;;;;;36.88;20.00;;;-6.00;99.90;;;;;;5037171;28;20053;-90
2022/03/08 06:34:40;;;;;;;46.83;20.85;;;-6.00;99.90;;;;;;5036787;28;20460;-88
2022/03/08 06:37:07;;;;;;;35.92;19.13;;;-5.90;99.90;;;;;;5036921;28;20041;-91
2022/03/08 06:39:34;;;;;;;36.50;19.45;;;-5.80;99.90;;;;;;5036738;28;20068;-88
2022/03/08 06:42:00;;;;;;;40.13;20.15;;;-5.80;99.90;;;;;;5036696;28;20485;-86
2022/03/08 06:44:27;;;;;;;37.50;20.25;;;-5.80;99.90;;;;;;5036817;28;20047;-88
2022/03/08 06:46:54;;;;;;;37.58;19.80;;;-5.80;99.90;;;;;;5036321;28;20107;-90
2022/03/08 06:49:21;;;;;;;39.38;19.92;;;-5.80;99.90;;;;;;5037109;28;20481;-91
2022/03/08 06:51:48;;;;;;;55.35;28.35;;;-5.70;99.90;;;;;;5036226;28;20457;-90
2022/03/08 06:54:17;;;;;;;422.58;202.25;;;-5.60;99.90;;;;;;5036801;28;20049;-88
2022/03/08 06:56:44;;;;;;;127.78;63.22;;;-5.40;99.90;;;;;;5036212;28;20080;-91
2022/03/08 06:59:11;;;;;;;52.20;27.15;;;-5.30;99.90;;;;;;5036820;28;20128;-91
2022/03/08 07:01:37;;;;;;;49.85;20.88;;;-5.30;99.90;;;;;;5036162;28;20128;-91
2022/03/08 07:04:04;;;;;;;53.22;22.35;;;-5.20;99.90;;;;;;5037214;28;20056;-91
2022/03/08 07:06:31;;;;;;;50.40;21.13;;;-5.10;99.90;;;;;;5036639;28;20135;-91
2022/03/08 07:08:58;;;;;;;37.03;19.15;;;-5.00;99.90;;;;;;5036716;28;20045;-89
2022/03/08 07:11:25;;;;;;;58.30;20.27;;;-4.90;99.90;;;;;;5035281;28;20472;-91
2022/03/08 07:13:52;;;;;;;48.85;20.80;;;-4.90;99.90;;;;;;5035495;28;20136;-91
2022/03/08 07:16:18;;;;;;;63.28;21.55;;;-4.80;99.90;;;;;;5053388;28;20479;-88
2022/03/08 07:18:45;;;;;;;53.35;21.23;;;-4.70;99.90;;;;;;5036124;28;20060;-91
2022/03/08 07:21:12;;;;;;;77.07;22.42;;;-4.60;99.90;;;;;;5037634;28;20552;-90
2022/03/08 07:23:39;;;;;;;58.47;21.65;;;-4.70;99.90;;;;;;5036658;28;20044;-90
2022/03/08 07:26:06;;;;;;;47.65;22.65;;;-4.60;99.90;;;;;;5036413;28;20110;-89
2022/03/08 07:28:39;;;;;;;74.55;25.77;;;-4.50;99.90;;;;;;5037368;28;20060;-90
2022/03/08 07:31:06;;;;;;;80.18;28.63;;;-4.30;99.90;;;;;;5035917;28;20044;-91
2022/03/08 07:33:34;;;;;;;80.97;32.05;;;-3.70;99.90;;;;;;5036440;28;20068;-91
2022/03/08 07:36:02;;;;;;;72.13;33.45;;;-2.70;99.90;;;;;;5036308;28;20052;-92
2022/03/08 07:38:29;;;;;;;69.53;33.50;;;-1.60;99.90;;;;;;5036988;28;20055;-93
2022/03/08 07:41:02;;;;;;;53.15;27.65;;;-0.70;99.90;;;;;;5037966;28;20059;-94
2022/03/08 07:43:31;;;;;;;39.03;16.88;;;0.30;99.90;;;;;;5037528;28;20057;-94
2022/03/08 07:45:57;;;;;;;42.25;20.88;;;0.50;99.90;;;;;;5037351;28;20079;-95
2022/03/08 07:48:25;;;;;;;51.90;14.43;;;1.20;99.90;;;;;;5037242;28;20148;-95
2022/03/08 07:50:52;;;;;;;51.42;13.52;;;1.10;99.90;;;;;;5037149;28;20073;-94
2022/03/08 07:53:18;;;;;;;48.85;16.40;;;1.80;99.90;;;;;;5037745;28;20079;-95
2022/03/08 07:55:46;;;;;;;81.72;48.35;;;2.30;99.90;;;;;;5040925;28;20087;-95
2022/03/08 07:58:19;;;;;;;50.08;15.65;;;3.30;99.90;;;;;;5038176;28;20052;-96
2022/03/08 08:00:46;;;;;;;52.42;18.00;;;4.70;99.90;;;;;;5036241;28;20140;-94
2022/03/08 08:03:13;;;;;;;95.30;57.42;;;5.90;99.90;;;;;;5036735;28;20095;-93
2022/03/08 08:05:40;;;;;;;126.18;61.35;;;6.80;99.50;;;;;;5036169;28;20057;-93
2022/03/08 08:08:07;;;;;;;78.95;39.63;;;7.10;98.10;;;;;;5036201;28;20529;-92
2022/03/08 08:10:35;;;;;;;38.95;15.65;;;8.40;92.70;;;;;;5035695;28;20084;-92
2022/03/08 08:13:02;;;;;;;28.23;10.25;;;9.30;87.10;;;;;;5035839;28;20546;-91
2022/03/08 08:15:28;;;;;;;153.18;93.82;;;9.30;83.20;;;;;;5035126;28;20056;-90
2022/03/08 08:17:55;;;;;;;204.60;126.63;;;10.10;80.50;;;;;;5035392;28;20661;-90
2022/03/08 08:20:22;;;;;;;37.67;15.13;;;9.90;76.20;;;;;;5035566;28;20466;-90
2022/03/08 08:22:49;;;;;;;175.60;19.10;;;9.60;80.40;;;;;;5035109;28;20049;-90
2022/03/08 08:25:16;;;;;;;45.90;12.57;;;10.10;77.80;;;;;;5039670;28;20075;-90
2022/03/08 08:27:43;;;;;;;17.23;8.88;;;9.70;76.40;;;;;;5039632;28;20057;-89
2022/03/08 08:30:10;;;;;;;17.85;9.73;;;10.50;75.50;;;;;;5039544;28;20072;-89
2022/03/08 08:32:38;;;;;;;10.68;8.57;;;10.10;74.30;;;;;;5039273;28;20048;-89
2022/03/08 08:35:06;;;;;;;17.35;10.13;;;10.10;75.90;;;;;;5039440;28;20418;-89
2022/03/08 08:37:33;;;;;;;12.70;10.55;;;10.20;76.40;;;;;;5038727;28;20424;-88
2022/03/08 08:40:00;;;;;;;14.43;8.25;;;11.50;74.00;;;;;;5038916;28;20061;-88
2022/03/08 08:42:27;;;;;;;14.00;8.48;;;12.70;69.90;;;;;;5038580;28;20136;-88
2022/03/08 08:44:54;;;;;;;19.83;8.05;;;13.40;66.90;;;;;;5038872;28;20107;-88
2022/03/08 08:47:20;;;;;;;15.15;8.18;;;13.50;66.10;;;;;;5038791;28;20045;-88
2022/03/08 08:49:47;;;;;;;14.50;7.57;;;14.50;63.10;;;;;;5039074;28;20413;-88
2022/03/08 08:52:14;;;;;;;9.02;7.03;;;14.00;61.90;;;;;;5039178;28;20068;-88
2022/03/08 08:54:41;;;;;;;43.25;8.45;;;14.10;61.10;;;;;;5038680;28;20576;-87
2022/03/08 08:57:07;;;;;;;34.83;8.57;;;14.40;60.70;;;;;;5039251;28;20045;-86
2022/03/08 08:59:34;;;;;;;25.00;7.68;;;13.80;63.30;;;;;;5038749;28;20053;-87
2022/03/08 09:02:01;;;;;;;15.10;7.30;;;14.20;62.80;;;;;;5038857;28;20132;-86
2022/03/08 09:04:28;;;;;;;15.23;6.68;;;14.90;61.70;;;;;;5038964;28;20098;-87
2022/03/08 09:06:55;;;;;;;15.77;6.95;;;15.50;59.00;;;;;;5038880;28;20049;-87
2022/03/08 09:09:22;;;;;;;10.48;6.80;;;15.30;58.10;;;;;;5038674;28;20045;-87
2022/03/08 09:11:48;;;;;;;71.00;9.98;;;15.50;57.20;;;;;;5038577;28;20051;-87
2022/03/08 09:14:15;;;;;;;25.42;8.68;;;15.10;58.80;;;;;;5038683;28;20068;-87
2022/03/08 09:16:42;;;;;;;18.65;7.82;;;15.50;57.90;;;;;;5038587;28;20059;-87
2022/03/08 09:19:10;;;;;;;11.90;7.68;;;14.60;57.80;;;;;;5038648;28;20464;-86
2022/03/08 09:21:38;;;;;;;16.45;8.13;;;15.40;57.70;;;;;;5038458;28;20143;-87
2022/03/08 09:24:05;;;;;;;15.40;7.75;;;14.50;58.00;;;;;;5038512;28;20511;-86
2022/03/08 09:26:33;;;;;;;11.82;7.75;;;14.00;59.50;;;;;;5038491;28;20094;-87
2022/03/08 09:28:59;;;;;;;10.20;6.82;;;14.30;60.40;;;;;;5038430;28;20072;-86
2022/03/08 09:31:26;;;;;;;11.75;6.30;;;14.80;59.40;;;;;;5038158;28;20139;-87
2022/03/08 09:33:53;;;;;;;10.95;6.90;;;15.90;58.00;;;;;;5038235;28;20114;-87
2022/03/08 09:36:20;;;;;;;9.35;6.38;;;16.40;58.10;;;;;;5038319;28;20144;-87
2022/03/08 09:38:46;;;;;;;16.42;6.72;;;18.10;55.20;;;;;;5038287;28;20107;-88
2022/03/08 09:41:14;;;;;;;28.65;7.05;;;18.30;53.20;;;;;;5038190;28;20049;-87
2022/03/08 09:43:41;;;;;;;33.95;7.28;;;19.30;52.60;;;;;;5038060;28;20068;-88
2022/03/08 09:46:08;;;;;;;9.32;6.43;;;18.80;52.40;;;;;;5038440;28;20144;-87
2022/03/08 09:48:35;;;;;;;11.25;6.72;;;17.90;53.60;;;;;;5038136;28;20055;-87
2022/03/08 09:51:03;;;;;;;8.02;7.00;;;17.80;52.10;;;;;;5037969;28;20045;-87
2022/03/08 09:53:32;;;;;;;8.18;6.80;;;16.90;52.30;;;;;;5038490;28;20057;-87
2022/03/08 09:56:00;;;;;;;10.80;6.78;;;15.90;54.20;;;;;;5038018;28;20057;-86
2022/03/08 09:58:31;;;;;;;15.70;7.07;;;15.80;54.70;;;;;;5038846;28;20075;-87
2022/03/08 10:01:00;;;;;;;20.15;7.78;;;15.60;55.70;;;;;;5038114;28;20085;-88
2022/03/08 10:03:32;;;;;;;11.80;6.97;;;15.50;55.80;;;;;;5038058;28;20132;-87
2022/03/08 10:05:59;;;;;;;9.40;6.97;;;15.70;55.70;;;;;;5038098;28;20045;-88
2022/03/08 10:08:27;;;;;;;21.85;7.93;;;16.10;54.10;;;;;;5037875;28;20137;-89
2022/03/08 10:11:01;;;;;;;7.90;6.55;;;16.60;54.20;;;;;;5037910;28;20041;-88
2022/03/08 10:13:50;;;;;;;8.85;5.97;;;16.00;54.90;;;;;;5040054;28;20059;-88
2022/03/08 10:16:24;;;;;;;6.82;6.13;;;16.70;54.10;;;;;;5055003;28;20052;-89
2022/03/08 10:18:58;;;;;;;9.23;5.90;;;17.30;53.00;;;;;;5037789;28;20049;-88
2022/03/08 10:21:26;;;;;;;6.07;5.47;;;17.80;52.90;;;;;;5037698;28;20053;-89
2022/03/08 10:23:54;;;;;;;11.85;5.78;;;17.10;53.10;;;;;;5037365;28;20055;-88
2022/03/08 10:26:22;;;;;;;22.95;6.72;;;17.90;52.00;;;;;;5037217;28;20568;-88
2022/03/08 10:28:51;;;;;;;6.85;5.40;;;17.30;51.80;;;;;;5055087;28;20044;-88
2022/03/08 10:31:19;;;;;;;5.60;5.10;;;16.30;53.40;;;;;;5054736;28;20067;-88
2022/03/08 10:33:47;;;;;;;16.05;6.03;;;15.70;54.60;;;;;;5037337;28;20044;-88
2022/03/08 10:36:23;;;;;;;6.25;5.65;;;15.50;54.60;;;;;;5036801;28;20045;-88
2022/03/08 10:39:12;;;;;;;7.78;6.07;;;15.40;54.80;;;;;;5037040;28;20045;-87
2022/03/08 10:41:49;;;;;;;6.10;4.43;;;16.20;55.10;;;;;;5054620;28;20548;-88
2022/03/08 10:44:30;;;;;;;8.25;4.40;;;15.60;54.20;;;;;;5037295;28;20082;-88
2022/03/08 10:47:12;;;;;;;10.45;4.10;;;15.30;55.40;;;;;;5036546;28;20051;-89
2022/03/08 10:49:54;;;;;;;5.05;4.20;;;14.80;56.80;;;;;;5036985;28;20489;-87
2022/03/08 10:52:33;;;;;;;5.88;4.30;;;15.40;55.50;;;;;;5054364;28;20139;-87
2022/03/08 10:55:23;;;;;;;4.90;4.50;;;16.10;53.80;;;;;;5036837;28;20135;-89
2022/03/08 10:57:55;;;;;;;4.95;4.55;;;16.40;54.00;;;;;;5037032;28;20083;-88
2022/03/08 11:00:31;;;;;;;4.05;3.75;;;16.50;54.20;;;;;;5034015;28;20041;-88
2022/03/08 11:02:59;;;;;;;9.98;4.32;;;15.70;54.60;;;;;;5054152;28;20049;-88
2022/03/08 11:05:34;;;;;;;5.57;4.63;;;15.60;54.40;;;;;;5036694;28;20087;-87
2022/03/08 11:08:01;;;;;;;4.82;3.85;;;15.90;54.40;;;;;;5036740;28;20049;-88
2022/03/08 11:10:30;;;;;;;3.70;3.45;;;15.60;54.10;;;;;;5036435;28;20067;-88
2022/03/08 11:12:58;;;;;;;3.50;3.20;;;17.10;52.30;;;;;;5035840;28;20416;-87
2022/03/08 11:15:27;;;;;;;3.42;3.13;;;17.10;50.80;;;;;;5036435;28;20109;-88
2022/03/08 11:17:55;;;;;;;3.38;3.08;;;17.00;51.20;;;;;;5036270;28;20405;-89
2022/03/08 11:20:24;;;;;;;13.90;5.15;;;18.00;49.70;;;;;;5036213;28;20416;-87
2022/03/08 11:22:54;;;;;;;9.35;5.03;;;17.00;50.80;;;;;;5036482;28;20053;-87
2022/03/08 11:25:23;;;;;;;8.13;5.50;;;17.80;51.60;;;;;;5053638;28;20080;-88
2022/03/08 11:28:10;;;;;;;5.93;4.75;;;18.90;51.50;;;;;;5039220;28;20045;-88
2022/03/08 11:30:46;;;;;;;7.53;5.40;;;20.70;47.90;;;;;;5035980;28;20496;-87
2022/03/08 11:33:47;;;;;;;7.93;5.07;;;18.40;49.00;;;;;;5053737;28;20053;-87
2022/03/08 11:36:30;;;;;;;4.22;3.22;;;19.10;48.80;;;;;;5053686;28;20555;-88
2022/03/08 11:39:15;;;;;;;5.10;3.00;;;19.00;47.40;;;;;;5053599;28;20147;-88
2022/03/08 11:41:43;;;;;;;3.17;2.83;;;20.50;44.90;;;;;;5036018;28;20083;-87
2022/03/08 11:44:24;;;;;;;2.95;2.65;;;19.80;44.90;;;;;;5035015;28;20059;-88
2022/03/08 11:46:59;;;;;;;7.30;3.00;;;19.80;46.40;;;;;;5035576;28;20052;-88
2022/03/08 11:49:51;;;;;;;4.80;3.15;;;18.40;47.70;;;;;;5052654;28;20076;-87
2022/03/08 11:52:25;;;;;;;3.60;3.30;;;18.00;45.90;;;;;;5034911;28;20563;-88
2022/03/08 11:54:53;;;;;;;;;;;17.00;46.60;;;;;;5035608;28;20125;-88
2022/03/08 11:57:41;;;;;;;3.50;3.22;;;17.40;47.60;;;;;;5034076;28;19921;-88
2022/03/08 12:00:15;;;;;;;3.33;3.03;;;16.70;48.40;;;;;;5034616;28;20052;-88
2022/03/08 12:02:51;;;;;;;;;;;17.90;48.30;;;;;;5035561;28;20095;-88
2022/03/08 12:05:44;;;;;;;3.42;3.13;;;18.60;46.50;;;;;;5034931;28;19975;-88
2022/03/08 12:08:29;;;;;;;3.03;2.83;;;18.30;45.70;;;;;;5034738;28;20484;-90
2022/03/08 12:11:26;;;;;;;5.07;2.95;;;18.50;45.20;;;;;;5052322;28;20075;-89
2022/03/08 12:14:14;;;;;;;12.85;3.50;;;17.70;46.00;;;;;;5037454;28;20052;-87
2022/03/08 12:16:47;;;;;;;3.60;3.20;;;17.10;46.90;;;;;;5034714;28;20053;-89
2022/03/08 12:19:21;;;;;;;3.63;3.00;;;18.30;47.50;;;;;;5052689;28;20186;-90
2022/03/08 12:21:55;;;;;;;3.58;3.30;;;17.30;47.30;;;;;;5052089;28;20048;-90
2022/03/08 12:24:23;;;;;;;5.47;3.08;;;17.00;47.30;;;;;;5052650;28;20115;-88
2022/03/08 12:27:02;;;;;;;5.60;3.55;;;16.70;49.30;;;;;;5036615;28;20127;-89
2022/03/08 12:29:53;;;;;;;4.15;2.95;;;16.30;47.70;;;;;;5037469;28;20507;-88
2022/03/08 12:32:39;;;;;;;4.65;2.90;;;16.80;48.80;;;;;;5034711;28;20131;-91
2022/03/08 12:35:17;;;;;;;6.55;3.55;;;16.20;47.80;;;;;;5035127;28;20103;-90
2022/03/08 12:37:50;;;;;;;7.35;3.30;;;16.00;48.20;;;;;;5052617;28;20053;-88
2022/03/08 12:40:33;;;;;;;6.70;2.97;;;15.80;48.40;;;;;;5034093;28;20076;-88
2022/03/08 12:43:07;;;;;;;4.78;3.20;;;15.50;48.60;;;;;;4904736;28;3742853;-88